Welcome to Trans World Virtual Airlines!

Welcome TWVA's Newest Pilot:

TWA2313 Bryan Heald

Not a Trans World pilot yet?
Apply Now!




Sign-in with your pilot id or email, or register

Flight TWA3881-A

  • Submitted By: Austin Hill
  • Departure Airport: JFK Airport (KJFK)
  • Arrival Airport: Kansas City International Airport (KMCI)
  • Aircraft: E170 (N173TE)
  • Flight Time: 03.31
  • Date Submitted: 10/21/2018
  • Route: BWZ FJC EJOCY AIR WINTS ZANDR APE26 BOWRR EMPTY CREEP FYLLS VHP GORDO CAP BAYLI TWAIN DRIVL KMCI
  • Status: Accepted
Flight Details
Gross Revenue:
(64 load / $ 450.00 per unit
$ 28, 800.00
Fuel Cost:
(12327 fuel used @ 0.8 / unit)
$ 9, 861.60

Additional Log Information:

View Log

FS[15:10] Aircraft Title - Embraer 170 TWA
FS[15:10] Aircraft Model - E-170
FS[15:10] Flight Number TWA3881-A
FS[15:10] Departure KJFK
FS[15:10] Destination KMCI
FS[15:10] Boarding
FS[15:21] Pushing Back
FS[15:28] Taxiing to Runway
FS[15:38] Taking Off
FS[15:38] Taking Off
FS[15:38] 146kts
FS[15:38] pitch angle 5 degrees
FS[15:38] 16933 (lbs) of fuel onboard
FS[15:38] Climbing
FS[15:56] TOC Reached
FS[15:56] Cruise 32000
FS[17:51] TOD Reached
FS[17:51] Descending
FS[18:07] On Approach
FS[18:22] Landing Rate -43fpm
FS[18:22] 6002 (lbs) of fuel onboard
FS[18:22] pitch angle 5 degrees
FS[18:23] Taxiing to Gate
FS[18:33] Arrived
FS[18:40] Max Sim Rate: 1x
FS[18:40] kACARS_Free Version 1.0.1.1

Comments

Commenter Comment
Austin Hill KJFK 211515Z 33024G35KT 10 SM FEW040 SCT100 SCT150 BKN250 08/M02 A2991 // KMCI 211810Z 19011KT 10SM CLR 11/M02 A3031

Route Map